createdAt,value
2023-03-27T00:01:12.541Z,71.66
2023-03-27T00:03:39.927Z,71.69
2023-03-27T00:06:11.533Z,71.15
2023-03-27T00:08:38.403Z,71.38
2023-03-27T00:11:06.584Z,71.52
2023-03-27T00:13:33.926Z,71.17
2023-03-27T00:16:02.228Z,70.86
2023-03-27T00:18:31.807Z,71.26
2023-03-27T00:21:00.397Z,71.51
2023-03-27T00:23:30.234Z,71.34
2023-03-27T00:25:57.366Z,70.90
2023-03-27T00:28:26.656Z,70.74
2023-03-27T00:30:55.306Z,71.00
2023-03-27T00:33:23.708Z,70.83
2023-03-27T00:35:51.077Z,70.64
2023-03-27T00:38:18.527Z,70.62
2023-03-27T00:40:46.264Z,70.60
2023-03-27T00:43:27.882Z,70.51
2023-03-27T00:45:58.063Z,71.12
2023-03-27T00:48:25.545Z,70.63
2023-03-27T00:50:52.969Z,69.91
2023-03-27T00:53:26.107Z,69.51
2023-03-27T00:55:55.264Z,69.26
2023-03-27T00:58:24.379Z,69.01
2023-03-27T01:00:52.676Z,68.74
2023-03-27T01:03:20.943Z,69.42
2023-03-27T01:05:49.921Z,68.51
2023-03-27T01:08:17.292Z,68.04
2023-03-27T01:10:57.903Z,67.83
2023-03-27T01:13:38.977Z,67.49
2023-03-27T01:16:11.444Z,67.22
2023-03-27T01:18:57.408Z,67.05
2023-03-27T01:21:42.673Z,66.79
2023-03-27T01:24:42.344Z,66.63
2023-03-27T01:27:30.676Z,66.11
2023-03-27T01:30:02.335Z,66.17
2023-03-27T01:32:49.335Z,66.30
2023-03-27T01:35:31.636Z,66.25
2023-03-27T01:37:58.592Z,65.55
2023-03-27T01:40:52.051Z,65.69
2023-03-27T01:43:26.060Z,66.03
2023-03-27T01:45:53.024Z,65.50
2023-03-27T01:48:40.577Z,65.05
2023-03-27T01:51:11.578Z,64.78
2023-03-27T01:53:42.323Z,64.34
2023-03-27T01:56:13.001Z,64.13
2023-03-27T01:58:45.752Z,63.75
2023-03-27T02:01:15.903Z,63.80
2023-03-27T02:03:44.954Z,63.79
2023-03-27T02:06:38.615Z,63.58
2023-03-27T02:09:15.278Z,63.38
2023-03-27T02:11:58.512Z,63.30
2023-03-27T02:14:30.374Z,63.01
2023-03-27T02:17:01.726Z,63.13
2023-03-27T02:19:34.621Z,62.99
2023-03-27T02:22:01.816Z,62.81
2023-03-27T02:24:29.365Z,62.58
2023-03-27T02:26:59.354Z,62.73
2023-03-27T02:29:29.477Z,62.51
2023-03-27T02:31:57.084Z,62.36
2023-03-27T02:34:26.952Z,62.16
2023-03-27T02:36:56.791Z,62.07
2023-03-27T02:39:45.731Z,61.78
2023-03-27T02:42:20.369Z,61.52
2023-03-27T02:45:01.763Z,61.28
2023-03-27T02:47:40.700Z,61.13
2023-03-27T02:50:09.227Z,61.14
2023-03-27T02:52:50.746Z,60.45
2023-03-27T02:55:20.401Z,60.71
2023-03-27T02:57:52.338Z,60.48
2023-03-27T03:00:27.894Z,60.52
2023-03-27T03:03:17.955Z,60.23
2023-03-27T03:05:50.410Z,60.64
2023-03-27T03:08:17.254Z,60.55
2023-03-27T03:10:45.545Z,60.57
2023-03-27T03:13:13.662Z,60.47
2023-03-27T03:15:42.109Z,60.47
2023-03-27T03:18:09.019Z,60.53
2023-03-27T03:20:35.949Z,60.55
2023-03-27T03:23:04.259Z,60.61
2023-03-27T03:25:31.082Z,60.71
2023-03-27T03:28:00.936Z,60.61
2023-03-27T03:30:29.738Z,60.51
2023-03-27T03:33:06.417Z,60.40
2023-03-27T03:35:34.435Z,60.03
2023-03-27T03:38:03.286Z,59.97
2023-03-27T03:40:32.506Z,60.23
2023-03-27T03:42:59.441Z,59.98
2023-03-27T03:45:28.636Z,59.86
2023-03-27T03:47:55.616Z,59.47
2023-03-27T03:50:23.435Z,59.36
2023-03-27T03:52:50.459Z,59.22
2023-03-27T03:55:17.269Z,59.20
2023-03-27T03:57:46.599Z,59.11
2023-03-27T04:00:18.323Z,58.82
2023-03-27T04:02:52.841Z,58.65
2023-03-27T04:05:20.331Z,58.14
2023-03-27T04:07:51.371Z,57.98
2023-03-27T04:10:30.156Z,57.96
2023-03-27T04:12:59.010Z,57.62
2023-03-27T04:15:31.611Z,57.61
2023-03-27T04:18:15.884Z,56.93
2023-03-27T04:20:43.112Z,57.09
2023-03-27T04:23:11.666Z,57.07
2023-03-27T04:25:39.758Z,56.99
2023-03-27T04:28:09.786Z,56.90
2023-03-27T04:30:43.483Z,56.73
2023-03-27T04:33:22.688Z,56.86
2023-03-27T04:36:08.413Z,56.69
2023-03-27T04:38:51.844Z,56.39
2023-03-27T04:41:18.731Z,56.32
2023-03-27T04:43:45.685Z,56.10
2023-03-27T04:46:12.633Z,56.24
2023-03-27T04:48:40.175Z,56.27
2023-03-27T04:51:26.206Z,56.27
2023-03-27T04:53:55.795Z,56.41
2023-03-27T04:56:23.250Z,56.49
2023-03-27T04:58:52.974Z,56.43
2023-03-27T05:01:20.114Z,56.48
2023-03-27T05:04:07.806Z,56.32
2023-03-27T05:06:40.755Z,56.54
2023-03-27T05:09:11.289Z,56.18
2023-03-27T05:11:38.113Z,56.14
2023-03-27T05:14:05.178Z,56.45
2023-03-27T05:16:33.227Z,56.46
2023-03-27T05:19:02.913Z,56.49
2023-03-27T05:21:36.096Z,56.46
2023-03-27T05:24:03.127Z,56.37
2023-03-27T05:26:30.504Z,56.51
2023-03-27T05:28:58.771Z,56.25
2023-03-27T05:31:26.776Z,55.87
2023-03-27T05:34:20.330Z,56.06
2023-03-27T05:36:48.877Z,55.64
2023-03-27T05:39:16.380Z,55.26
2023-03-27T05:41:45.929Z,55.36
2023-03-27T05:44:18.207Z,55.24
2023-03-27T05:46:45.266Z,55.19
2023-03-27T05:49:17.246Z,55.27
2023-03-27T05:51:47.112Z,55.16
2023-03-27T05:54:19.278Z,54.78
2023-03-27T05:56:55.940Z,55.03
2023-03-27T05:59:22.841Z,55.04
2023-03-27T06:01:51.416Z,54.91
2023-03-27T06:04:23.591Z,54.44
2023-03-27T06:07:12.177Z,54.07
2023-03-27T06:09:39.908Z,53.96
2023-03-27T06:12:26.922Z,54.13
2023-03-27T06:15:01.306Z,53.87
2023-03-27T06:17:37.709Z,53.66
2023-03-27T06:20:11.770Z,53.77
2023-03-27T06:22:41.948Z,53.60
2023-03-27T06:25:09.436Z,52.66
2023-03-27T06:27:37.075Z,52.55
2023-03-27T06:30:04.718Z,52.83
2023-03-27T06:32:31.876Z,52.95
2023-03-27T06:34:59.484Z,52.54
2023-03-27T06:38:04.428Z,51.84
2023-03-27T06:40:34.673Z,52.33
2023-03-27T06:43:06.181Z,50.67
2023-03-27T06:45:50.257Z,50.27
2023-03-27T06:48:52.623Z,51.11
2023-03-27T06:51:22.476Z,51.29
2023-03-27T06:53:49.942Z,51.57
2023-03-27T06:56:17.909Z,50.04
2023-03-27T06:59:04.710Z,50.49
2023-03-27T07:01:31.981Z,50.74
2023-03-27T07:04:22.147Z,50.87
2023-03-27T07:07:15.448Z,50.68
2023-03-27T07:09:43.234Z,51.08
2023-03-27T07:12:12.303Z,50.73
2023-03-27T07:14:40.099Z,50.92
2023-03-27T07:17:09.591Z,50.99
2023-03-27T07:20:05.485Z,50.65
2023-03-27T07:22:33.172Z,50.63
2023-03-27T07:25:04.395Z,50.40
2023-03-27T07:27:37.087Z,50.29
2023-03-27T07:30:07.413Z,50.34
2023-03-27T07:32:37.513Z,50.16
2023-03-27T07:35:05.950Z,50.62
2023-03-27T07:37:55.587Z,51.27
2023-03-27T07:40:39.804Z,51.57
2023-03-27T07:43:30.205Z,51.89
2023-03-27T07:45:57.610Z,52.01
2023-03-27T07:48:25.223Z,52.16
2023-03-27T07:50:58.257Z,52.80
2023-03-27T07:53:32.737Z,53.11
2023-03-27T07:56:08.221Z,53.04
2023-03-27T07:58:36.255Z,53.79
2023-03-27T08:01:04.135Z,54.13
2023-03-27T08:03:31.810Z,54.05
2023-03-27T08:05:59.952Z,53.96
2023-03-27T08:08:29.158Z,53.42
2023-03-27T08:10:58.024Z,53.30
2023-03-27T08:13:27.294Z,53.47
2023-03-27T08:16:04.947Z,53.33
2023-03-27T08:18:31.884Z,53.37
2023-03-27T08:21:00.362Z,52.50
2023-03-27T08:23:27.313Z,52.84
2023-03-27T08:26:20.651Z,53.91
2023-03-27T08:28:55.659Z,54.47
2023-03-27T08:31:25.123Z,55.94
2023-03-27T08:33:52.783Z,57.17
2023-03-27T08:36:23.945Z,57.91
2023-03-27T08:38:54.740Z,58.45
2023-03-27T08:41:28.024Z,58.74
2023-03-27T08:44:18.419Z,59.53
2023-03-27T08:47:02.525Z,60.03
2023-03-27T08:49:34.077Z,59.82
2023-03-27T08:52:15.152Z,60.52
2023-03-27T08:54:44.322Z,61.62
2023-03-27T08:57:17.907Z,61.33
2023-03-27T08:59:46.712Z,61.89
2023-03-27T09:02:13.621Z,61.61
2023-03-27T09:04:52.543Z,61.96
2023-03-27T09:07:38.713Z,62.23
2023-03-27T09:10:51.184Z,62.16
2023-03-27T09:13:28.851Z,64.15
2023-03-27T09:16:03.915Z,62.95
2023-03-27T09:18:37.592Z,62.90
2023-03-27T09:21:20.713Z,63.10
2023-03-27T09:23:47.827Z,63.02
2023-03-27T09:26:30.408Z,62.66
2023-03-27T09:29:01.632Z,62.23
2023-03-27T09:31:35.819Z,62.44
2023-03-27T09:34:07.048Z,62.97
2023-03-27T09:36:38.225Z,62.93
2023-03-27T09:39:07.636Z,62.36
2023-03-27T09:41:38.631Z,61.78
2023-03-27T09:44:12.126Z,62.09
2023-03-27T09:46:45.667Z,61.81
2023-03-27T09:49:14.426Z,61.56
2023-03-27T09:51:47.260Z,61.38
2023-03-27T09:54:49.363Z,60.95
2023-03-27T09:57:16.508Z,61.43
2023-03-27T10:00:01.110Z,61.21
2023-03-27T10:02:29.986Z,60.20
2023-03-27T10:04:57.772Z,58.82
2023-03-27T10:07:26.173Z,58.74
2023-03-27T10:10:19.575Z,57.59
2023-03-27T10:13:05.885Z,57.73
2023-03-27T10:15:45.607Z,57.45
2023-03-27T10:18:23.815Z,58.07
2023-03-27T10:20:55.545Z,57.85
2023-03-27T10:23:27.054Z,57.50
2023-03-27T10:25:58.765Z,57.51
2023-03-27T10:28:33.934Z,57.71
2023-03-27T10:31:30.246Z,57.65
2023-03-27T10:34:27.042Z,57.97
2023-03-27T10:37:19.110Z,57.82
2023-03-27T10:39:52.404Z,57.93
2023-03-27T10:42:32.038Z,58.08
2023-03-27T10:44:59.683Z,58.14
2023-03-27T10:47:30.972Z,58.07
2023-03-27T10:50:01.940Z,57.94
2023-03-27T10:52:57.833Z,58.10
2023-03-27T10:55:43.997Z,57.94
2023-03-27T10:58:19.544Z,57.83
2023-03-27T11:00:50.691Z,57.73
2023-03-27T11:03:39.180Z,57.61
2023-03-27T11:06:11.707Z,57.98
2023-03-27T11:08:57.899Z,58.10
2023-03-27T11:11:27.718Z,58.38
2023-03-27T11:14:01.728Z,58.33
2023-03-27T11:16:32.397Z,58.43
2023-03-27T11:19:15.993Z,58.35
2023-03-27T11:22:26.639Z,58.59
2023-03-27T11:25:02.395Z,58.63
2023-03-27T11:27:39.064Z,58.79
2023-03-27T11:30:15.834Z,58.89
2023-03-27T11:32:59.395Z,59.13
2023-03-27T11:35:33.090Z,59.21
2023-03-27T11:38:20.182Z,59.42
2023-03-27T11:40:49.007Z,59.63
2023-03-27T11:43:17.680Z,59.70
2023-03-27T11:45:44.765Z,59.42
2023-03-27T11:48:12.210Z,59.27
2023-03-27T11:51:10.141Z,59.35
2023-03-27T11:53:43.766Z,59.24
2023-03-27T11:56:25.842Z,58.81
2023-03-27T11:59:16.845Z,58.09
2023-03-27T12:02:05.484Z,58.29
2023-03-27T12:04:32.647Z,58.18
2023-03-27T12:07:40.599Z,58.15
2023-03-27T12:10:16.843Z,58.04
2023-03-27T12:13:28.812Z,58.14
2023-03-27T12:16:03.072Z,58.38
2023-03-27T12:18:43.183Z,58.32
2023-03-27T12:21:31.378Z,58.49
2023-03-27T12:24:14.759Z,58.32
2023-03-27T12:27:23.769Z,58.81
2023-03-27T12:30:07.454Z,58.75
2023-03-27T12:32:43.733Z,58.73
2023-03-27T12:35:14.651Z,58.97
2023-03-27T12:37:48.977Z,59.22
2023-03-27T12:40:36.973Z,59.10
2023-03-27T12:43:05.507Z,59.27
2023-03-27T12:45:38.805Z,59.31
2023-03-27T12:48:12.091Z,59.13
2023-03-27T12:50:52.155Z,59.39
2023-03-27T12:53:40.971Z,59.44
2023-03-27T12:56:12.937Z,59.18
2023-03-27T12:58:40.980Z,59.12
2023-03-27T13:01:22.323Z,58.94
2023-03-27T13:04:07.786Z,58.91
2023-03-27T13:06:42.493Z,58.84
2023-03-27T13:09:33.395Z,58.89
2023-03-27T13:12:22.561Z,58.75
2023-03-27T13:14:55.856Z,58.75
2023-03-27T13:17:38.443Z,58.34
2023-03-27T13:20:26.182Z,58.38
2023-03-27T13:23:13.825Z,58.70
2023-03-27T13:25:45.462Z,58.87
2023-03-27T13:28:29.398Z,59.41
2023-03-27T13:31:35.371Z,59.65
2023-03-27T13:34:28.734Z,59.53
2023-03-27T13:37:08.746Z,59.43
2023-03-27T13:39:55.031Z,59.67
2023-03-27T13:42:25.466Z,59.78
2023-03-27T13:45:01.542Z,59.84
2023-03-27T13:47:33.934Z,59.97
2023-03-27T13:50:20.507Z,59.90
2023-03-27T13:52:53.394Z,60.15
2023-03-27T13:55:49.704Z,60.34
2023-03-27T13:58:51.857Z,60.43
2023-03-27T14:01:27.685Z,60.66
2023-03-27T14:04:14.095Z,61.09
2023-03-27T14:07:00.194Z,60.28
2023-03-27T14:09:46.900Z,62.10
2023-03-27T14:12:38.207Z,61.21
2023-03-27T14:15:29.000Z,59.82
2023-03-27T14:18:32.280Z,59.40
2023-03-27T14:21:01.479Z,59.38
2023-03-27T14:23:32.011Z,59.85
2023-03-27T14:26:17.596Z,60.20
2023-03-27T14:28:46.378Z,60.60
2023-03-27T14:31:18.762Z,61.15
2023-03-27T14:34:24.082Z,61.50
2023-03-27T14:36:58.815Z,61.31
2023-03-27T14:39:37.091Z,61.18
2023-03-27T14:42:15.028Z,61.14
2023-03-27T14:44:44.278Z,61.21
2023-03-27T14:47:15.780Z,61.34
2023-03-27T14:49:45.392Z,61.45
2023-03-27T14:52:21.495Z,61.31
2023-03-27T14:55:15.113Z,61.29
2023-03-27T14:57:44.110Z,61.42
2023-03-27T15:00:19.555Z,61.53
2023-03-27T15:02:48.578Z,61.78
2023-03-27T15:05:17.656Z,61.74
2023-03-27T15:07:48.594Z,61.36
2023-03-27T15:10:24.066Z,61.33
2023-03-27T15:13:10.880Z,61.74
2023-03-27T15:15:43.826Z,62.49
2023-03-27T15:18:14.886Z,62.36
2023-03-27T15:20:42.231Z,62.02
2023-03-27T15:23:21.258Z,62.11
2023-03-27T15:25:57.390Z,62.74
2023-03-27T15:28:30.600Z,62.63
2023-03-27T15:30:59.829Z,61.96
2023-03-27T15:33:40.680Z,61.80
2023-03-27T15:36:10.835Z,61.89
2023-03-27T15:38:37.961Z,62.38
2023-03-27T15:41:14.123Z,62.47
2023-03-27T15:43:42.912Z,62.60
2023-03-27T15:46:15.344Z,62.25
2023-03-27T15:48:45.115Z,61.76
2023-03-27T15:51:26.486Z,61.53
2023-03-27T15:53:55.295Z,61.51
2023-03-27T15:56:30.005Z,61.52
2023-03-27T15:58:56.958Z,62.06
2023-03-27T16:01:35.420Z,62.60
2023-03-27T16:04:16.320Z,62.98
2023-03-27T16:06:47.961Z,63.56
2023-03-27T16:09:26.582Z,63.98
2023-03-27T16:11:55.409Z,64.35
2023-03-27T16:14:31.743Z,64.75
2023-03-27T16:17:10.459Z,65.21
2023-03-27T16:19:44.528Z,65.65
2023-03-27T16:22:12.784Z,66.00
2023-03-27T16:24:40.147Z,66.17
2023-03-27T16:27:08.892Z,64.81
2023-03-27T16:29:36.358Z,63.98
2023-03-27T16:32:03.350Z,65.55
2023-03-27T16:34:30.308Z,66.08
2023-03-27T16:36:57.286Z,63.59
2023-03-27T16:39:24.311Z,66.92
2023-03-27T16:41:51.468Z,66.95
2023-03-27T16:44:18.547Z,68.95
2023-03-27T16:46:46.380Z,66.43
2023-03-27T16:49:13.445Z,67.73
2023-03-27T16:51:40.398Z,66.52
2023-03-27T16:54:07.353Z,67.13
2023-03-27T16:56:34.733Z,67.12
2023-03-27T16:59:03.701Z,63.80
2023-03-27T17:01:30.466Z,67.37
2023-03-27T17:03:57.717Z,66.77
2023-03-27T17:06:24.730Z,69.93
2023-03-27T17:08:54.917Z,70.58
2023-03-27T17:11:22.825Z,76.80
2023-03-27T17:13:50.318Z,77.78
2023-03-27T17:16:17.100Z,80.53
2023-03-27T17:18:45.659Z,79.07
2023-03-27T17:21:12.619Z,76.57
2023-03-27T17:23:41.702Z,79.02
2023-03-27T17:26:14.117Z,75.80
2023-03-27T17:28:42.871Z,76.21
2023-03-27T17:31:09.853Z,77.29
2023-03-27T17:33:36.842Z,77.64
2023-03-27T17:36:10.786Z,77.43
2023-03-27T17:38:37.842Z,77.97
2023-03-27T17:41:05.121Z,76.92
2023-03-27T17:43:32.148Z,75.22
2023-03-27T17:45:59.277Z,74.43
2023-03-27T17:48:26.388Z,74.49
2023-03-27T17:51:07.599Z,80.40
2023-03-27T17:53:39.307Z,79.68
2023-03-27T17:56:10.798Z,83.73
2023-03-27T17:58:37.713Z,81.50
2023-03-27T18:01:17.178Z,80.53
2023-03-27T18:03:46.624Z,80.27
2023-03-27T18:06:16.779Z,80.24
2023-03-27T18:08:44.401Z,79.78
2023-03-27T18:11:12.668Z,79.62
2023-03-27T18:13:40.355Z,80.10
2023-03-27T18:16:09.871Z,79.86
2023-03-27T18:18:38.481Z,79.78
2023-03-27T18:21:07.764Z,79.76
2023-03-27T18:23:34.822Z,79.55
2023-03-27T18:26:05.888Z,79.56
2023-03-27T18:28:33.006Z,79.39
2023-03-27T18:31:04.733Z,79.48
2023-03-27T18:33:32.060Z,79.51
2023-03-27T18:35:59.204Z,79.48
2023-03-27T18:38:27.336Z,79.61
2023-03-27T18:40:59.164Z,79.39
2023-03-27T18:43:26.313Z,79.92
2023-03-27T18:45:54.095Z,79.99
2023-03-27T18:48:21.069Z,79.76
2023-03-27T18:50:58.412Z,79.69
2023-03-27T18:53:28.348Z,80.67
2023-03-27T18:55:57.980Z,80.44
2023-03-27T18:58:26.938Z,80.07
2023-03-27T19:00:57.382Z,79.14
2023-03-27T19:03:25.613Z,79.41
2023-03-27T19:05:52.807Z,79.39
2023-03-27T19:08:20.784Z,79.11
2023-03-27T19:10:47.843Z,79.06
2023-03-27T19:13:21.653Z,83.49
2023-03-27T19:15:57.912Z,84.77
2023-03-27T19:19:00.671Z,83.80
2023-03-27T19:21:46.453Z,83.03
2023-03-27T19:24:32.565Z,82.69
2023-03-27T19:26:59.800Z,82.84
2023-03-27T19:29:26.854Z,82.45
2023-03-27T19:31:53.958Z,82.34
2023-03-27T19:34:27.307Z,82.10
2023-03-27T19:36:59.879Z,82.12
2023-03-27T19:39:26.729Z,82.33
2023-03-27T19:41:53.578Z,82.05
2023-03-27T19:44:20.941Z,81.98
2023-03-27T19:46:47.892Z,81.80
2023-03-27T19:49:16.266Z,82.21
2023-03-27T19:52:06.877Z,82.02
2023-03-27T19:54:33.926Z,82.05
2023-03-27T19:57:02.077Z,81.84
2023-03-27T19:59:31.128Z,80.68
2023-03-27T20:01:58.996Z,81.51
2023-03-27T20:04:26.126Z,81.23
2023-03-27T20:06:53.482Z,78.32
2023-03-27T20:09:20.576Z,75.66
2023-03-27T20:11:47.485Z,76.55
2023-03-27T20:14:14.853Z,79.26
2023-03-27T20:16:41.796Z,75.22
2023-03-27T20:19:08.953Z,81.65
2023-03-27T20:21:40.037Z,78.87
2023-03-27T20:24:12.061Z,85.15
2023-03-27T20:26:41.428Z,84.16
2023-03-27T20:29:16.018Z,84.48
2023-03-27T20:31:45.269Z,84.96
2023-03-27T20:34:12.454Z,87.72
2023-03-27T20:36:39.931Z,86.25
2023-03-27T20:39:33.639Z,87.10
2023-03-27T20:42:00.631Z,86.40
2023-03-27T20:44:34.570Z,86.23
2023-03-27T20:47:03.084Z,86.34
2023-03-27T20:49:40.844Z,85.85
2023-03-27T20:52:09.513Z,85.56
2023-03-27T20:54:36.368Z,84.06
2023-03-27T20:57:03.697Z,82.91
2023-03-27T20:59:30.898Z,81.84
2023-03-27T21:01:58.775Z,80.14
2023-03-27T21:04:27.651Z,78.88
2023-03-27T21:06:57.228Z,81.67
2023-03-27T21:09:25.583Z,80.52
2023-03-27T21:11:54.507Z,80.88
2023-03-27T21:14:21.894Z,79.62
2023-03-27T21:16:49.043Z,79.50
2023-03-27T21:19:16.617Z,77.27
2023-03-27T21:21:44.190Z,77.24
2023-03-27T21:24:11.152Z,76.93
2023-03-27T21:26:38.092Z,76.34
2023-03-27T21:29:05.143Z,76.54
2023-03-27T21:31:32.357Z,76.02
2023-03-27T21:33:59.963Z,76.12
2023-03-27T21:36:29.470Z,76.78
2023-03-27T21:38:57.242Z,76.50
2023-03-27T21:41:25.209Z,76.83
2023-03-27T21:43:52.369Z,77.26
2023-03-27T21:46:19.468Z,76.86
2023-03-27T21:48:49.643Z,77.25
2023-03-27T21:51:17.436Z,77.06
2023-03-27T21:53:45.361Z,77.23
2023-03-27T21:56:12.341Z,77.04
2023-03-27T21:58:39.392Z,77.16
2023-03-27T22:01:06.484Z,77.06
2023-03-27T22:03:33.434Z,76.60
2023-03-27T22:06:12.514Z,76.29
2023-03-27T22:08:41.433Z,76.63
2023-03-27T22:11:09.098Z,76.28
2023-03-27T22:13:36.752Z,75.93
2023-03-27T22:16:11.731Z,75.74
2023-03-27T22:18:39.256Z,76.05
2023-03-27T22:21:21.757Z,76.23
2023-03-27T22:23:50.242Z,75.79
2023-03-27T22:26:21.603Z,75.64
2023-03-27T22:28:48.852Z,75.65
2023-03-27T22:31:16.094Z,74.63
2023-03-27T22:33:43.063Z,74.85
2023-03-27T22:36:11.239Z,75.57
2023-03-27T22:38:38.726Z,75.92
2023-03-27T22:41:06.136Z,75.36
2023-03-27T22:43:33.247Z,74.81
2023-03-27T22:46:04.612Z,74.90
2023-03-27T22:48:32.081Z,74.44
2023-03-27T22:50:59.386Z,74.32
2023-03-27T22:53:26.441Z,74.46
2023-03-27T22:55:54.325Z,73.98
2023-03-27T22:58:21.124Z,74.20
2023-03-27T23:00:49.276Z,74.68
2023-03-27T23:03:16.987Z,75.49
2023-03-27T23:05:45.084Z,75.03
2023-03-27T23:08:12.033Z,75.30
2023-03-27T23:10:39.091Z,75.24
2023-03-27T23:13:07.377Z,77.13
2023-03-27T23:15:34.530Z,76.17
2023-03-27T23:18:02.123Z,76.48
2023-03-27T23:20:30.677Z,75.45
2023-03-27T23:22:57.527Z,76.26
2023-03-27T23:25:24.482Z,76.76
2023-03-27T23:27:51.443Z,76.95
2023-03-27T23:30:18.231Z,77.50
2023-03-27T23:32:45.089Z,79.45
2023-03-27T23:35:12.228Z,78.75
2023-03-27T23:37:39.230Z,78.47
2023-03-27T23:40:06.816Z,78.28
2023-03-27T23:42:33.900Z,79.03
2023-03-27T23:45:00.712Z,79.04
2023-03-27T23:47:27.675Z,78.87
2023-03-27T23:49:55.314Z,79.00
2023-03-27T23:52:22.162Z,79.74
2023-03-27T23:54:49.142Z,79.08
2023-03-27T23:57:16.223Z,80.01
2023-03-27T23:59:43.222Z,79.31
